sensor_id;sensor_type;location;lat;lon;timestamp;P1;durP1;ratioP1;P2;durP2;ratioP2
1376;SDS011;682;52.502;13.488;2023-08-06T00:02:18;10.63;;;9.80;;
1376;SDS011;682;52.502;13.488;2023-08-06T00:04:45;11.27;;;10.37;;
1376;SDS011;682;52.502;13.488;2023-08-06T00:07:12;10.27;;;9.53;;
1376;SDS011;682;52.502;13.488;2023-08-06T00:09:40;10.77;;;10.03;;
1376;SDS011;682;52.502;13.488;2023-08-06T00:12:09;11.10;;;10.00;;
1376;SDS011;682;52.502;13.488;2023-08-06T00:14:39;11.03;;;10.13;;
1376;SDS011;682;52.502;13.488;2023-08-06T00:17:06;11.33;;;10.20;;
1376;SDS011;682;52.502;13.488;2023-08-06T00:19:32;10.50;;;9.70;;
1376;SDS011;682;52.502;13.488;2023-08-06T00:22:00;12.77;;;11.70;;
1376;SDS011;682;52.502;13.488;2023-08-06T00:24:27;12.00;;;11.00;;
1376;SDS011;682;52.502;13.488;2023-08-06T00:26:54;10.87;;;10.07;;
1376;SDS011;682;52.502;13.488;2023-08-06T00:29:22;11.10;;;10.20;;
1376;SDS011;682;52.502;13.488;2023-08-06T00:31:49;9.93;;;9.10;;
1376;SDS011;682;52.502;13.488;2023-08-06T00:34:18;10.60;;;9.80;;
1376;SDS011;682;52.502;13.488;2023-08-06T00:36:45;11.27;;;10.40;;
1376;SDS011;682;52.502;13.488;2023-08-06T00:39:14;11.10;;;10.00;;
1376;SDS011;682;52.502;13.488;2023-08-06T00:41:41;10.57;;;9.77;;
1376;SDS011;682;52.502;13.488;2023-08-06T00:44:08;11.43;;;10.53;;
1376;SDS011;682;52.502;13.488;2023-08-06T00:46:36;11.50;;;10.50;;
1376;SDS011;682;52.502;13.488;2023-08-06T00:49:04;10.80;;;10.00;;
1376;SDS011;682;52.502;13.488;2023-08-06T00:51:31;11.33;;;10.33;;
1376;SDS011;682;52.502;13.488;2023-08-06T00:53:59;10.80;;;9.90;;
1376;SDS011;682;52.502;13.488;2023-08-06T00:56:28;12.20;;;11.30;;
1376;SDS011;682;52.502;13.488;2023-08-06T00:58:55;10.47;;;9.60;;
1376;SDS011;682;52.502;13.488;2023-08-06T01:01:22;10.80;;;9.90;;
1376;SDS011;682;52.502;13.488;2023-08-06T01:03:51;11.47;;;10.57;;
1376;SDS011;682;52.502;13.488;2023-08-06T01:06:19;11.40;;;10.60;;
1376;SDS011;682;52.502;13.488;2023-08-06T01:08:56;13.03;;;11.93;;
1376;SDS011;682;52.502;13.488;2023-08-06T01:11:30;12.20;;;11.30;;
1376;SDS011;682;52.502;13.488;2023-08-06T01:14:11;12.40;;;11.43;;
1376;SDS011;682;52.502;13.488;2023-08-06T01:16:47;12.40;;;11.40;;
1376;SDS011;682;52.502;13.488;2023-08-06T01:19:17;13.10;;;12.20;;
1376;SDS011;682;52.502;13.488;2023-08-06T01:21:46;12.90;;;11.70;;
1376;SDS011;682;52.502;13.488;2023-08-06T01:24:13;12.63;;;11.53;;
1376;SDS011;682;52.502;13.488;2023-08-06T01:26:42;12.07;;;11.07;;
1376;SDS011;682;52.502;13.488;2023-08-06T01:29:15;12.50;;;11.50;;
1376;SDS011;682;52.502;13.488;2023-08-06T01:31:48;11.73;;;10.83;;
1376;SDS011;682;52.502;13.488;2023-08-06T01:34:17;12.43;;;11.43;;
1376;SDS011;682;52.502;13.488;2023-08-06T01:36:49;12.50;;;11.50;;
1376;SDS011;682;52.502;13.488;2023-08-06T01:39:17;12.83;;;11.30;;
1376;SDS011;682;52.502;13.488;2023-08-06T01:41:46;12.10;;;11.00;;
1376;SDS011;682;52.502;13.488;2023-08-06T01:44:13;13.27;;;12.27;;
1376;SDS011;682;52.502;13.488;2023-08-06T01:46:40;12.73;;;11.53;;
1376;SDS011;682;52.502;13.488;2023-08-06T01:49:08;12.47;;;11.30;;
1376;SDS011;682;52.502;13.488;2023-08-06T01:51:35;12.57;;;11.40;;
1376;SDS011;682;52.502;13.488;2023-08-06T01:54:03;13.77;;;12.70;;
1376;SDS011;682;52.502;13.488;2023-08-06T01:56:30;12.50;;;11.50;;
1376;SDS011;682;52.502;13.488;2023-08-06T01:58:57;12.80;;;11.70;;
1376;SDS011;682;52.502;13.488;2023-08-06T02:01:24;13.17;;;12.07;;
1376;SDS011;682;52.502;13.488;2023-08-06T02:03:51;11.63;;;10.73;;
1376;SDS011;682;52.502;13.488;2023-08-06T02:06:18;11.93;;;10.93;;
1376;SDS011;682;52.502;13.488;2023-08-06T02:08:45;12.27;;;11.27;;
1376;SDS011;682;52.502;13.488;2023-08-06T02:11:13;10.20;;;9.43;;
1376;SDS011;682;52.502;13.488;2023-08-06T02:13:40;10.97;;;10.07;;
1376;SDS011;682;52.502;13.488;2023-08-06T02:16:07;11.50;;;10.50;;
1376;SDS011;682;52.502;13.488;2023-08-06T02:18:35;12.33;;;11.20;;
1376;SDS011;682;52.502;13.488;2023-08-06T02:21:02;11.53;;;10.70;;
1376;SDS011;682;52.502;13.488;2023-08-06T02:23:29;10.73;;;9.83;;
1376;SDS011;682;52.502;13.488;2023-08-06T02:25:56;12.00;;;11.00;;
1376;SDS011;682;52.502;13.488;2023-08-06T02:28:26;11.60;;;10.70;;
1376;SDS011;682;52.502;13.488;2023-08-06T02:30:53;11.50;;;10.60;;
1376;SDS011;682;52.502;13.488;2023-08-06T02:33:20;11.33;;;10.23;;
1376;SDS011;682;52.502;13.488;2023-08-06T02:35:47;11.40;;;10.50;;
1376;SDS011;682;52.502;13.488;2023-08-06T02:38:14;12.00;;;10.80;;
1376;SDS011;682;52.502;13.488;2023-08-06T02:40:44;11.27;;;10.17;;
1376;SDS011;682;52.502;13.488;2023-08-06T02:43:11;11.33;;;10.43;;
1376;SDS011;682;52.502;13.488;2023-08-06T02:45:40;12.40;;;11.30;;
1376;SDS011;682;52.502;13.488;2023-08-06T02:48:08;14.70;;;11.80;;
1376;SDS011;682;52.502;13.488;2023-08-06T02:50:38;12.50;;;11.50;;
1376;SDS011;682;52.502;13.488;2023-08-06T02:53:05;11.90;;;11.00;;
1376;SDS011;682;52.502;13.488;2023-08-06T02:55:33;12.07;;;11.13;;
1376;SDS011;682;52.502;13.488;2023-08-06T02:58:00;12.00;;;10.80;;
1376;SDS011;682;52.502;13.488;2023-08-06T03:00:27;11.97;;;10.97;;
1376;SDS011;682;52.502;13.488;2023-08-06T03:02:56;11.63;;;10.60;;
1376;SDS011;682;52.502;13.488;2023-08-06T03:05:23;11.80;;;10.60;;
1376;SDS011;682;52.502;13.488;2023-08-06T03:07:50;11.70;;;10.77;;
1376;SDS011;682;52.502;13.488;2023-08-06T03:10:17;10.53;;;9.63;;
1376;SDS011;682;52.502;13.488;2023-08-06T03:12:45;11.90;;;10.90;;
1376;SDS011;682;52.502;13.488;2023-08-06T03:15:12;10.97;;;10.13;;
1376;SDS011;682;52.502;13.488;2023-08-06T03:17:39;11.83;;;10.90;;
1376;SDS011;682;52.502;13.488;2023-08-06T03:20:08;12.60;;;11.50;;
1376;SDS011;682;52.502;13.488;2023-08-06T03:22:36;11.80;;;10.80;;
1376;SDS011;682;52.502;13.488;2023-08-06T03:25:06;11.70;;;10.70;;
1376;SDS011;682;52.502;13.488;2023-08-06T03:27:34;12.97;;;11.97;;
1376;SDS011;682;52.502;13.488;2023-08-06T03:30:01;13.53;;;12.43;;
1376;SDS011;682;52.502;13.488;2023-08-06T03:32:29;12.43;;;11.30;;
1376;SDS011;682;52.502;13.488;2023-08-06T03:34:56;12.10;;;11.20;;
1376;SDS011;682;52.502;13.488;2023-08-06T03:37:25;11.67;;;10.77;;
1376;SDS011;682;52.502;13.488;2023-08-06T03:39:52;12.27;;;11.23;;
1376;SDS011;682;52.502;13.488;2023-08-06T03:42:19;11.30;;;10.40;;
1376;SDS011;682;52.502;13.488;2023-08-06T03:44:45;11.53;;;10.50;;
1376;SDS011;682;52.502;13.488;2023-08-06T03:47:13;11.50;;;10.40;;
1376;SDS011;682;52.502;13.488;2023-08-06T03:49:40;11.37;;;10.50;;
1376;SDS011;682;52.502;13.488;2023-08-06T03:52:08;9.47;;;8.57;;
1376;SDS011;682;52.502;13.488;2023-08-06T03:54:36;10.20;;;9.20;;
1376;SDS011;682;52.502;13.488;2023-08-06T03:57:04;11.33;;;10.33;;
1376;SDS011;682;52.502;13.488;2023-08-06T03:59:31;9.50;;;8.80;;
1376;SDS011;682;52.502;13.488;2023-08-06T04:01:59;10.10;;;9.30;;
1376;SDS011;682;52.502;13.488;2023-08-06T04:04:26;10.27;;;9.47;;
1376;SDS011;682;52.502;13.488;2023-08-06T04:06:52;9.37;;;8.60;;
1376;SDS011;682;52.502;13.488;2023-08-06T04:09:20;9.93;;;9.20;;
1376;SDS011;682;52.502;13.488;2023-08-06T04:11:48;10.17;;;9.37;;
1376;SDS011;682;52.502;13.488;2023-08-06T04:14:15;10.67;;;9.80;;
1376;SDS011;682;52.502;13.488;2023-08-06T04:16:42;10.50;;;9.70;;
1376;SDS011;682;52.502;13.488;2023-08-06T04:19:09;10.43;;;9.50;;
1376;SDS011;682;52.502;13.488;2023-08-06T04:21:36;11.30;;;10.40;;
1376;SDS011;682;52.502;13.488;2023-08-06T04:24:03;10.70;;;9.80;;
1376;SDS011;682;52.502;13.488;2023-08-06T04:26:30;10.43;;;9.63;;
1376;SDS011;682;52.502;13.488;2023-08-06T04:28:59;10.30;;;9.40;;
1376;SDS011;682;52.502;13.488;2023-08-06T04:31:26;9.00;;;8.30;;
1376;SDS011;682;52.502;13.488;2023-08-06T04:33:53;9.70;;;9.00;;
1376;SDS011;682;52.502;13.488;2023-08-06T04:36:20;10.40;;;9.40;;
1376;SDS011;682;52.502;13.488;2023-08-06T04:38:50;9.87;;;9.17;;
1376;SDS011;682;52.502;13.488;2023-08-06T04:41:17;10.47;;;9.47;;
1376;SDS011;682;52.502;13.488;2023-08-06T04:43:44;9.77;;;8.97;;
1376;SDS011;682;52.502;13.488;2023-08-06T04:46:12;11.10;;;10.00;;
1376;SDS011;682;52.502;13.488;2023-08-06T04:48:39;10.30;;;9.47;;
1376;SDS011;682;52.502;13.488;2023-08-06T04:51:06;9.83;;;9.07;;
1376;SDS011;682;52.502;13.488;2023-08-06T04:53:33;11.03;;;9.53;;
1376;SDS011;682;52.502;13.488;2023-08-06T04:56:00;9.90;;;9.10;;
1376;SDS011;682;52.502;13.488;2023-08-06T04:58:27;11.97;;;11.00;;
1376;SDS011;682;52.502;13.488;2023-08-06T05:00:54;10.93;;;10.13;;
1376;SDS011;682;52.502;13.488;2023-08-06T05:03:22;10.33;;;9.47;;
1376;SDS011;682;52.502;13.488;2023-08-06T05:05:49;10.87;;;10.07;;
1376;SDS011;682;52.502;13.488;2023-08-06T05:08:16;10.73;;;9.93;;
1376;SDS011;682;52.502;13.488;2023-08-06T05:10:45;10.13;;;9.33;;
1376;SDS011;682;52.502;13.488;2023-08-06T05:13:12;11.13;;;10.23;;
1376;SDS011;682;52.502;13.488;2023-08-06T05:15:39;11.47;;;10.40;;
1376;SDS011;682;52.502;13.488;2023-08-06T05:18:07;10.50;;;9.70;;
1376;SDS011;682;52.502;13.488;2023-08-06T05:20:37;11.40;;;10.40;;
1376;SDS011;682;52.502;13.488;2023-08-06T05:23:04;11.67;;;10.67;;
1376;SDS011;682;52.502;13.488;2023-08-06T05:25:31;12.10;;;11.00;;
1376;SDS011;682;52.502;13.488;2023-08-06T05:27:58;12.13;;;11.13;;
1376;SDS011;682;52.502;13.488;2023-08-06T05:30:26;10.60;;;9.77;;
1376;SDS011;682;52.502;13.488;2023-08-06T05:32:53;10.90;;;10.03;;
1376;SDS011;682;52.502;13.488;2023-08-06T05:35:21;11.63;;;10.53;;
1376;SDS011;682;52.502;13.488;2023-08-06T05:37:49;11.97;;;10.97;;
1376;SDS011;682;52.502;13.488;2023-08-06T05:40:16;12.30;;;11.40;;
1376;SDS011;682;52.502;13.488;2023-08-06T05:42:43;11.30;;;10.40;;
1376;SDS011;682;52.502;13.488;2023-08-06T05:45:10;11.97;;;11.00;;
1376;SDS011;682;52.502;13.488;2023-08-06T05:47:37;11.77;;;10.67;;
1376;SDS011;682;52.502;13.488;2023-08-06T05:50:05;12.10;;;11.10;;
1376;SDS011;682;52.502;13.488;2023-08-06T05:52:34;13.03;;;11.73;;
1376;SDS011;682;52.502;13.488;2023-08-06T05:55:06;11.57;;;10.57;;
1376;SDS011;682;52.502;13.488;2023-08-06T05:57:33;11.50;;;10.40;;
1376;SDS011;682;52.502;13.488;2023-08-06T06:00:00;12.53;;;11.50;;
1376;SDS011;682;52.502;13.488;2023-08-06T06:02:31;11.07;;;10.07;;
1376;SDS011;682;52.502;13.488;2023-08-06T06:04:58;11.33;;;10.40;;
1376;SDS011;682;52.502;13.488;2023-08-06T06:07:25;11.70;;;10.70;;
1376;SDS011;682;52.502;13.488;2023-08-06T06:09:52;12.00;;;11.00;;
1376;SDS011;682;52.502;13.488;2023-08-06T06:12:20;12.43;;;11.07;;
1376;SDS011;682;52.502;13.488;2023-08-06T06:14:48;13.47;;;12.47;;
1376;SDS011;682;52.502;13.488;2023-08-06T06:17:14;11.13;;;10.17;;
1376;SDS011;682;52.502;13.488;2023-08-06T06:19:41;11.80;;;10.90;;
1376;SDS011;682;52.502;13.488;2023-08-06T06:22:09;13.03;;;11.93;;
1376;SDS011;682;52.502;13.488;2023-08-06T06:24:35;13.20;;;12.17;;
1376;SDS011;682;52.502;13.488;2023-08-06T06:27:03;12.53;;;11.53;;
1376;SDS011;682;52.502;13.488;2023-08-06T06:29:32;14.30;;;13.00;;
1376;SDS011;682;52.502;13.488;2023-08-06T06:31:59;13.43;;;12.23;;
1376;SDS011;682;52.502;13.488;2023-08-06T06:34:26;13.00;;;12.00;;
1376;SDS011;682;52.502;13.488;2023-08-06T06:36:53;13.50;;;12.40;;
1376;SDS011;682;52.502;13.488;2023-08-06T06:39:20;12.60;;;11.50;;
1376;SDS011;682;52.502;13.488;2023-08-06T06:41:47;13.23;;;12.00;;
1376;SDS011;682;52.502;13.488;2023-08-06T06:44:14;13.13;;;12.03;;
1376;SDS011;682;52.502;13.488;2023-08-06T06:46:43;12.97;;;11.90;;
1376;SDS011;682;52.502;13.488;2023-08-06T06:49:10;14.60;;;13.23;;
1376;SDS011;682;52.502;13.488;2023-08-06T06:51:37;14.00;;;12.70;;
1376;SDS011;682;52.502;13.488;2023-08-06T06:54:04;12.23;;;11.10;;
1376;SDS011;682;52.502;13.488;2023-08-06T06:56:30;13.57;;;12.47;;
1376;SDS011;682;52.502;13.488;2023-08-06T06:58:57;14.57;;;13.33;;
1376;SDS011;682;52.502;13.488;2023-08-06T07:01:24;13.60;;;12.60;;
1376;SDS011;682;52.502;13.488;2023-08-06T07:03:53;13.33;;;12.23;;
1376;SDS011;682;52.502;13.488;2023-08-06T07:06:20;12.73;;;11.70;;
1376;SDS011;682;52.502;13.488;2023-08-06T07:08:47;12.73;;;11.67;;
1376;SDS011;682;52.502;13.488;2023-08-06T07:11:14;13.60;;;12.47;;
1376;SDS011;682;52.502;13.488;2023-08-06T07:13:41;12.20;;;11.20;;
1376;SDS011;682;52.502;13.488;2023-08-06T07:16:08;12.80;;;11.60;;
1376;SDS011;682;52.502;13.488;2023-08-06T07:18:34;13.57;;;12.37;;
1376;SDS011;682;52.502;13.488;2023-08-06T07:21:03;12.40;;;11.40;;
1376;SDS011;682;52.502;13.488;2023-08-06T07:23:30;11.80;;;10.90;;
1376;SDS011;682;52.502;13.488;2023-08-06T07:25:57;12.63;;;11.63;;
1376;SDS011;682;52.502;13.488;2023-08-06T07:28:24;12.80;;;11.70;;
1376;SDS011;682;52.502;13.488;2023-08-06T07:30:51;11.73;;;10.80;;
1376;SDS011;682;52.502;13.488;2023-08-06T07:33:18;12.13;;;11.17;;
1376;SDS011;682;52.502;13.488;2023-08-06T07:35:46;12.00;;;10.90;;
1376;SDS011;682;52.502;13.488;2023-08-06T07:38:14;12.80;;;11.80;;
1376;SDS011;682;52.502;13.488;2023-08-06T07:40:41;11.70;;;10.70;;
1376;SDS011;682;52.502;13.488;2023-08-06T07:43:08;11.67;;;10.77;;
1376;SDS011;682;52.502;13.488;2023-08-06T07:45:35;12.17;;;11.03;;
1376;SDS011;682;52.502;13.488;2023-08-06T07:48:02;13.10;;;11.90;;
1376;SDS011;682;52.502;13.488;2023-08-06T07:50:30;12.03;;;10.93;;
1376;SDS011;682;52.502;13.488;2023-08-06T07:52:58;11.30;;;10.50;;
1376;SDS011;682;52.502;13.488;2023-08-06T07:55:26;13.27;;;11.90;;
1376;SDS011;682;52.502;13.488;2023-08-06T07:57:53;11.60;;;10.60;;
1376;SDS011;682;52.502;13.488;2023-08-06T08:00:20;12.10;;;11.00;;
1376;SDS011;682;52.502;13.488;2023-08-06T08:02:47;11.00;;;10.10;;
1376;SDS011;682;52.502;13.488;2023-08-06T08:05:14;10.67;;;9.87;;
1376;SDS011;682;52.502;13.488;2023-08-06T08:07:41;10.90;;;9.90;;
1376;SDS011;682;52.502;13.488;2023-08-06T08:10:09;11.20;;;10.30;;
1376;SDS011;682;52.502;13.488;2023-08-06T08:12:37;12.70;;;11.70;;
1376;SDS011;682;52.502;13.488;2023-08-06T08:15:05;12.00;;;10.90;;
1376;SDS011;682;52.502;13.488;2023-08-06T08:17:32;12.30;;;11.23;;
1376;SDS011;682;52.502;13.488;2023-08-06T08:19:59;12.10;;;11.17;;
1376;SDS011;682;52.502;13.488;2023-08-06T08:22:26;13.10;;;12.10;;
1376;SDS011;682;52.502;13.488;2023-08-06T08:24:53;13.07;;;11.97;;
1376;SDS011;682;52.502;13.488;2023-08-06T08:27:20;12.87;;;11.77;;
1376;SDS011;682;52.502;13.488;2023-08-06T08:29:48;12.97;;;11.97;;
1376;SDS011;682;52.502;13.488;2023-08-06T08:32:16;13.33;;;12.33;;
1376;SDS011;682;52.502;13.488;2023-08-06T08:34:42;12.63;;;11.63;;
1376;SDS011;682;52.502;13.488;2023-08-06T08:37:10;15.70;;;14.47;;
1376;SDS011;682;52.502;13.488;2023-08-06T08:39:37;14.20;;;12.80;;
1376;SDS011;682;52.502;13.488;2023-08-06T08:42:04;13.20;;;12.20;;
1376;SDS011;682;52.502;13.488;2023-08-06T08:44:32;12.00;;;11.10;;
1376;SDS011;682;52.502;13.488;2023-08-06T08:47:02;11.93;;;11.03;;
1376;SDS011;682;52.502;13.488;2023-08-06T08:49:30;12.43;;;11.43;;
1376;SDS011;682;52.502;13.488;2023-08-06T08:51:58;12.60;;;11.50;;
1376;SDS011;682;52.502;13.488;2023-08-06T08:54:25;13.23;;;12.03;;
1376;SDS011;682;52.502;13.488;2023-08-06T08:56:53;10.93;;;10.03;;
1376;SDS011;682;52.502;13.488;2023-08-06T08:59:21;12.20;;;11.20;;
1376;SDS011;682;52.502;13.488;2023-08-06T09:01:48;14.27;;;12.90;;
1376;SDS011;682;52.502;13.488;2023-08-06T09:04:18;12.43;;;11.43;;
1376;SDS011;682;52.502;13.488;2023-08-06T09:06:46;13.37;;;12.37;;
1376;SDS011;682;52.502;13.488;2023-08-06T09:09:17;13.60;;;12.40;;
1376;SDS011;682;52.502;13.488;2023-08-06T09:11:50;14.50;;;13.30;;
1376;SDS011;682;52.502;13.488;2023-08-06T09:14:17;13.77;;;12.57;;
1376;SDS011;682;52.502;13.488;2023-08-06T09:16:44;13.47;;;12.40;;
1376;SDS011;682;52.502;13.488;2023-08-06T09:19:12;14.47;;;13.27;;
1376;SDS011;682;52.502;13.488;2023-08-06T09:21:42;14.83;;;13.63;;
1376;SDS011;682;52.502;13.488;2023-08-06T09:24:09;16.43;;;15.13;;
1376;SDS011;682;52.502;13.488;2023-08-06T09:26:39;16.00;;;14.50;;
1376;SDS011;682;52.502;13.488;2023-08-06T09:29:07;16.73;;;15.20;;
1376;SDS011;682;52.502;13.488;2023-08-06T09:31:40;15.97;;;14.60;;
1376;SDS011;682;52.502;13.488;2023-08-06T09:34:10;16.03;;;14.70;;
1376;SDS011;682;52.502;13.488;2023-08-06T09:36:39;16.53;;;15.23;;
1376;SDS011;682;52.502;13.488;2023-08-06T09:39:13;17.93;;;16.40;;
1376;SDS011;682;52.502;13.488;2023-08-06T09:41:40;15.50;;;14.20;;
1376;SDS011;682;52.502;13.488;2023-08-06T09:44:13;15.90;;;14.57;;
1376;SDS011;682;52.502;13.488;2023-08-06T09:46:46;13.63;;;12.53;;
1376;SDS011;682;52.502;13.488;2023-08-06T09:49:14;12.20;;;11.17;;
1376;SDS011;682;52.502;13.488;2023-08-06T09:51:42;10.57;;;9.70;;
1376;SDS011;682;52.502;13.488;2023-08-06T09:54:11;13.77;;;12.67;;
1376;SDS011;682;52.502;13.488;2023-08-06T09:56:39;12.03;;;10.77;;
1376;SDS011;682;52.502;13.488;2023-08-06T09:59:08;13.30;;;12.30;;
1376;SDS011;682;52.502;13.488;2023-08-06T10:01:36;13.73;;;12.63;;
1376;SDS011;682;52.502;13.488;2023-08-06T10:04:04;10.93;;;9.93;;
1376;SDS011;682;52.502;13.488;2023-08-06T10:06:33;11.77;;;10.67;;
1376;SDS011;682;52.502;13.488;2023-08-06T10:09:03;11.30;;;10.30;;
1376;SDS011;682;52.502;13.488;2023-08-06T10:11:30;9.80;;;9.00;;
1376;SDS011;682;52.502;13.488;2023-08-06T10:13:58;9.67;;;8.87;;
1376;SDS011;682;52.502;13.488;2023-08-06T10:16:30;9.23;;;8.53;;
1376;SDS011;682;52.502;13.488;2023-08-06T10:18:58;9.17;;;8.47;;
1376;SDS011;682;52.502;13.488;2023-08-06T10:21:27;9.50;;;8.80;;
1376;SDS011;682;52.502;13.488;2023-08-06T10:23:55;10.50;;;9.70;;
1376;SDS011;682;52.502;13.488;2023-08-06T10:26:26;9.50;;;8.60;;
1376;SDS011;682;52.502;13.488;2023-08-06T10:28:53;9.37;;;8.67;;
1376;SDS011;682;52.502;13.488;2023-08-06T10:31:26;8.17;;;7.57;;
1376;SDS011;682;52.502;13.488;2023-08-06T10:34:21;9.27;;;8.50;;
1376;SDS011;682;52.502;13.488;2023-08-06T10:36:48;8.53;;;7.83;;
1376;SDS011;682;52.502;13.488;2023-08-06T10:39:15;8.77;;;8.17;;
1376;SDS011;682;52.502;13.488;2023-08-06T10:41:43;8.37;;;7.73;;
1376;SDS011;682;52.502;13.488;2023-08-06T10:44:10;7.53;;;7.03;;
1376;SDS011;682;52.502;13.488;2023-08-06T10:46:38;9.30;;;8.50;;
1376;SDS011;682;52.502;13.488;2023-08-06T10:49:05;7.80;;;7.10;;
1376;SDS011;682;52.502;13.488;2023-08-06T10:51:32;7.23;;;6.63;;
1376;SDS011;682;52.502;13.488;2023-08-06T10:53:59;7.33;;;6.73;;
1376;SDS011;682;52.502;13.488;2023-08-06T10:56:26;7.37;;;6.77;;
1376;SDS011;682;52.502;13.488;2023-08-06T10:58:55;6.60;;;5.93;;
1376;SDS011;682;52.502;13.488;2023-08-06T11:01:24;10.03;;;9.23;;
1376;SDS011;682;52.502;13.488;2023-08-06T11:03:56;6.90;;;6.30;;
1376;SDS011;682;52.502;13.488;2023-08-06T11:06:28;7.93;;;7.33;;
1376;SDS011;682;52.502;13.488;2023-08-06T11:08:55;6.80;;;6.30;;
1376;SDS011;682;52.502;13.488;2023-08-06T11:11:23;7.33;;;6.70;;
1376;SDS011;682;52.502;13.488;2023-08-06T11:13:55;6.43;;;5.93;;
1376;SDS011;682;52.502;13.488;2023-08-06T11:16:23;6.53;;;6.03;;
1376;SDS011;682;52.502;13.488;2023-08-06T11:18:50;6.00;;;5.53;;
1376;SDS011;682;52.502;13.488;2023-08-06T11:21:19;6.67;;;6.17;;
1376;SDS011;682;52.502;13.488;2023-08-06T11:23:46;6.33;;;5.83;;
1376;SDS011;682;52.502;13.488;2023-08-06T11:26:18;7.10;;;6.40;;
1376;SDS011;682;52.502;13.488;2023-08-06T11:28:45;6.90;;;6.40;;
1376;SDS011;682;52.502;13.488;2023-08-06T11:31:19;7.40;;;6.80;;
1376;SDS011;682;52.502;13.488;2023-08-06T11:33:46;7.33;;;6.80;;
1376;SDS011;682;52.502;13.488;2023-08-06T11:36:14;8.03;;;7.33;;
1376;SDS011;682;52.502;13.488;2023-08-06T11:38:41;8.20;;;7.60;;
1376;SDS011;682;52.502;13.488;2023-08-06T11:41:08;7.93;;;7.33;;
1376;SDS011;682;52.502;13.488;2023-08-06T11:43:35;9.03;;;8.23;;
1376;SDS011;682;52.502;13.488;2023-08-06T11:46:02;9.07;;;8.37;;
1376;SDS011;682;52.502;13.488;2023-08-06T11:48:30;8.47;;;7.77;;
1376;SDS011;682;52.502;13.488;2023-08-06T11:50:57;8.40;;;7.70;;
1376;SDS011;682;52.502;13.488;2023-08-06T11:53:26;8.03;;;7.40;;
1376;SDS011;682;52.502;13.488;2023-08-06T11:55:55;9.67;;;8.97;;
1376;SDS011;682;52.502;13.488;2023-08-06T11:58:22;8.80;;;8.10;;
1376;SDS011;682;52.502;13.488;2023-08-06T12:00:49;9.90;;;9.10;;
1376;SDS011;682;52.502;13.488;2023-08-06T12:03:18;10.10;;;9.30;;
1376;SDS011;682;52.502;13.488;2023-08-06T12:05:47;12.20;;;11.13;;
1376;SDS011;682;52.502;13.488;2023-08-06T12:08:14;10.27;;;9.47;;
1376;SDS011;682;52.502;13.488;2023-08-06T12:10:41;10.47;;;9.63;;
1376;SDS011;682;52.502;13.488;2023-08-06T12:13:08;9.63;;;8.83;;
1376;SDS011;682;52.502;13.488;2023-08-06T12:15:36;8.80;;;8.10;;
1376;SDS011;682;52.502;13.488;2023-08-06T12:18:03;26.33;;;24.50;;
1376;SDS011;682;52.502;13.488;2023-08-06T12:20:31;12.33;;;11.43;;
1376;SDS011;682;52.502;13.488;2023-08-06T12:22:59;9.57;;;8.83;;
1376;SDS011;682;52.502;13.488;2023-08-06T12:25:26;9.27;;;8.57;;
1376;SDS011;682;52.502;13.488;2023-08-06T12:27:53;9.93;;;9.17;;
1376;SDS011;682;52.502;13.488;2023-08-06T12:30:20;9.83;;;8.93;;
1376;SDS011;682;52.502;13.488;2023-08-06T12:32:49;10.13;;;9.23;;
1376;SDS011;682;52.502;13.488;2023-08-06T12:35:17;10.03;;;9.13;;
1376;SDS011;682;52.502;13.488;2023-08-06T12:37:45;10.90;;;9.90;;
1376;SDS011;682;52.502;13.488;2023-08-06T12:40:13;8.70;;;8.00;;
1376;SDS011;682;52.502;13.488;2023-08-06T12:42:40;9.70;;;8.90;;
1376;SDS011;682;52.502;13.488;2023-08-06T12:45:07;10.53;;;9.73;;
1376;SDS011;682;52.502;13.488;2023-08-06T12:47:34;10.23;;;9.43;;
1376;SDS011;682;52.502;13.488;2023-08-06T12:50:01;9.87;;;9.00;;
1376;SDS011;682;52.502;13.488;2023-08-06T12:52:28;9.50;;;8.80;;
1376;SDS011;682;52.502;13.488;2023-08-06T12:54:58;8.37;;;7.67;;
1376;SDS011;682;52.502;13.488;2023-08-06T12:57:26;10.40;;;9.50;;
1376;SDS011;682;52.502;13.488;2023-08-06T12:59:54;10.50;;;9.60;;
1376;SDS011;682;52.502;13.488;2023-08-06T13:02:24;9.00;;;8.30;;
1376;SDS011;682;52.502;13.488;2023-08-06T13:04:54;9.17;;;8.27;;
1376;SDS011;682;52.502;13.488;2023-08-06T13:07:21;8.97;;;8.37;;
1376;SDS011;682;52.502;13.488;2023-08-06T13:09:51;10.07;;;9.27;;
1376;SDS011;682;52.502;13.488;2023-08-06T13:12:20;10.33;;;9.43;;
1376;SDS011;682;52.502;13.488;2023-08-06T13:14:49;9.30;;;8.60;;
1376;SDS011;682;52.502;13.488;2023-08-06T13:17:18;10.77;;;9.80;;
1376;SDS011;682;52.502;13.488;2023-08-06T13:19:45;11.17;;;10.23;;
1376;SDS011;682;52.502;13.488;2023-08-06T13:22:12;10.13;;;9.13;;
1376;SDS011;682;52.502;13.488;2023-08-06T13:24:39;10.10;;;9.30;;
1376;SDS011;682;52.502;13.488;2023-08-06T13:27:06;10.97;;;9.87;;
1376;SDS011;682;52.502;13.488;2023-08-06T13:29:34;10.17;;;9.37;;
1376;SDS011;682;52.502;13.488;2023-08-06T13:32:03;11.33;;;10.43;;
1376;SDS011;682;52.502;13.488;2023-08-06T13:34:30;10.50;;;9.70;;
1376;SDS011;682;52.502;13.488;2023-08-06T13:36:57;11.47;;;10.47;;
1376;SDS011;682;52.502;13.488;2023-08-06T13:39:24;10.30;;;9.50;;
1376;SDS011;682;52.502;13.488;2023-08-06T13:41:51;9.93;;;9.10;;
1376;SDS011;682;52.502;13.488;2023-08-06T13:44:18;10.47;;;9.30;;
1376;SDS011;682;52.502;13.488;2023-08-06T13:46:45;8.37;;;7.67;;
1376;SDS011;682;52.502;13.488;2023-08-06T13:49:14;9.47;;;8.67;;
1376;SDS011;682;52.502;13.488;2023-08-06T13:51:41;7.97;;;7.23;;
1376;SDS011;682;52.502;13.488;2023-08-06T13:54:08;7.93;;;7.33;;
1376;SDS011;682;52.502;13.488;2023-08-06T13:56:35;8.30;;;7.57;;
1376;SDS011;682;52.502;13.488;2023-08-06T13:59:03;8.60;;;7.80;;
1376;SDS011;682;52.502;13.488;2023-08-06T14:01:30;8.60;;;7.90;;
1376;SDS011;682;52.502;13.488;2023-08-06T14:03:57;8.37;;;7.57;;
1376;SDS011;682;52.502;13.488;2023-08-06T14:06:26;7.80;;;7.10;;
1376;SDS011;682;52.502;13.488;2023-08-06T14:08:53;7.30;;;6.60;;
1376;SDS011;682;52.502;13.488;2023-08-06T14:11:20;8.33;;;7.53;;
1376;SDS011;682;52.502;13.488;2023-08-06T14:13:47;8.37;;;7.67;;
1376;SDS011;682;52.502;13.488;2023-08-06T14:16:14;8.57;;;7.77;;
1376;SDS011;682;52.502;13.488;2023-08-06T14:18:41;8.37;;;7.50;;
1376;SDS011;682;52.502;13.488;2023-08-06T14:21:08;9.27;;;8.47;;
1376;SDS011;682;52.502;13.488;2023-08-06T14:23:36;8.30;;;7.60;;
1376;SDS011;682;52.502;13.488;2023-08-06T14:26:03;7.30;;;6.70;;
1376;SDS011;682;52.502;13.488;2023-08-06T14:28:30;7.93;;;7.20;;
1376;SDS011;682;52.502;13.488;2023-08-06T14:30:57;7.17;;;6.50;;
1376;SDS011;682;52.502;13.488;2023-08-06T14:33:24;6.20;;;5.70;;
1376;SDS011;682;52.502;13.488;2023-08-06T14:35:51;7.10;;;6.33;;
1376;SDS011;682;52.502;13.488;2023-08-06T14:38:18;6.10;;;5.60;;
1376;SDS011;682;52.502;13.488;2023-08-06T14:40:46;6.80;;;6.20;;
1376;SDS011;682;52.502;13.488;2023-08-06T14:43:13;7.00;;;6.30;;
1376;SDS011;682;52.502;13.488;2023-08-06T14:45:40;6.67;;;6.07;;
1376;SDS011;682;52.502;13.488;2023-08-06T14:48:07;7.50;;;6.87;;
1376;SDS011;682;52.502;13.488;2023-08-06T14:50:35;7.87;;;7.07;;
1376;SDS011;682;52.502;13.488;2023-08-06T14:53:04;8.97;;;8.10;;
1376;SDS011;682;52.502;13.488;2023-08-06T14:55:31;7.17;;;6.67;;
1376;SDS011;682;52.502;13.488;2023-08-06T14:58:00;6.83;;;6.23;;
1376;SDS011;682;52.502;13.488;2023-08-06T15:00:27;7.00;;;6.30;;
1376;SDS011;682;52.502;13.488;2023-08-06T15:02:55;6.80;;;6.00;;